Academia, Pennsylvania
Current Conditions -  °F | °C
As of 5:15 AM on Sunday 25 Jan 2015 (Local Time) from KUNV Reporting Station
Overcast Overcast  
Wind Chill: 24°   Ceiling: 1600
Heat Index: 33°   Visibility: 10mi
Dew Point: 30°   Wind: 13mph
Humidity: 87%   Direction: 270°W
Pressure: 29.66"   Gusts: 21mph
Location:  40.4991°N, 77.4687°W
Report Text: KUNV 251015Z AUTO 27011G18KT 10SM BKN016 OVC022 01/M01 A2966 RMK AO2 T00081012
Loading
Personal Weather Stations






























Interactive Weather Map New forecast layout! Learn more

10-Day Weather Forecast

Advertisements
Track Severe Weather on mobile